createdAt,value
2019-03-06T00:00:41.177Z,67.12
2019-03-06T00:03:08.424Z,67.52
2019-03-06T00:05:36.063Z,67.49
2019-03-06T00:08:03.478Z,67.45
2019-03-06T00:10:31.374Z,67.48
2019-03-06T00:12:58.743Z,67.55
2019-03-06T00:15:26.028Z,67.52
2019-03-06T00:17:53.238Z,67.52
2019-03-06T00:20:20.775Z,67.48
2019-03-06T00:22:48.059Z,67.48
2019-03-06T00:25:15.358Z,67.47
2019-03-06T00:27:42.660Z,67.50
2019-03-06T00:30:10.082Z,67.49
2019-03-06T00:32:37.360Z,67.53
2019-03-06T00:35:07.281Z,67.46
2019-03-06T00:37:34.524Z,67.50
2019-03-06T00:40:08.496Z,67.55
2019-03-06T00:42:40.362Z,67.60
2019-03-06T00:45:08.167Z,67.76
2019-03-06T00:47:35.442Z,67.90
2019-03-06T00:50:02.902Z,67.86
2019-03-06T00:52:30.167Z,67.91
2019-03-06T00:54:57.446Z,67.92
2019-03-06T00:57:24.709Z,67.60
2019-03-06T00:59:51.988Z,68.29
2019-03-06T01:02:19.257Z,68.27
2019-03-06T01:04:46.502Z,68.31
2019-03-06T01:07:13.809Z,68.44
2019-03-06T01:09:41.074Z,68.34
2019-03-06T01:12:08.731Z,68.46
2019-03-06T01:14:36.002Z,68.42
2019-03-06T01:17:03.295Z,68.45
2019-03-06T01:19:30.589Z,68.45
2019-03-06T01:21:57.838Z,68.43
2019-03-06T01:24:25.088Z,68.41
2019-03-06T01:26:52.564Z,68.41
2019-03-06T01:29:19.901Z,68.39
2019-03-06T01:31:47.451Z,68.41
2019-03-06T01:34:40.010Z,68.63
2019-03-06T01:37:18.219Z,68.69
2019-03-06T01:39:53.892Z,68.75
2019-03-06T01:42:40.583Z,68.76
2019-03-06T01:45:10.158Z,68.82
2019-03-06T01:47:37.380Z,68.92
2019-03-06T01:50:06.740Z,69.05
2019-03-06T01:52:34.030Z,69.08
2019-03-06T01:55:03.753Z,69.18
2019-03-06T01:57:30.980Z,69.40
2019-03-06T01:59:58.258Z,69.56
2019-03-06T02:02:25.661Z,69.57
2019-03-06T02:04:52.919Z,69.67
2019-03-06T02:07:22.505Z,69.80
2019-03-06T02:09:49.801Z,70.03
2019-03-06T02:12:17.058Z,70.19
2019-03-06T02:14:44.310Z,70.29
2019-03-06T02:17:11.690Z,70.45
2019-03-06T02:19:39.074Z,70.43
2019-03-06T02:22:06.458Z,70.47
2019-03-06T02:24:33.730Z,70.50
2019-03-06T02:27:01.028Z,70.55
2019-03-06T02:29:28.320Z,70.67
2019-03-06T02:31:55.604Z,70.72
2019-03-06T02:34:22.832Z,71.21
2019-03-06T02:36:50.081Z,71.33
2019-03-06T02:39:17.359Z,71.36
2019-03-06T02:41:44.603Z,71.45
2019-03-06T02:44:11.839Z,71.46
2019-03-06T02:46:39.111Z,71.71
2019-03-06T02:49:06.345Z,71.79
2019-03-06T02:51:33.824Z,71.82
2019-03-06T02:54:01.076Z,71.86
2019-03-06T02:56:30.682Z,71.74
2019-03-06T02:59:17.501Z,71.95
2019-03-06T03:02:07.321Z,71.98
2019-03-06T03:04:42.739Z,72.08
2019-03-06T03:07:15.795Z,72.35
2019-03-06T03:09:43.048Z,72.62
2019-03-06T03:12:10.320Z,73.41
2019-03-06T03:14:37.567Z,73.57
2019-03-06T03:17:04.862Z,73.77
2019-03-06T03:19:32.100Z,74.04
2019-03-06T03:21:59.309Z,74.79
2019-03-06T03:24:26.926Z,74.90
2019-03-06T03:26:54.227Z,74.72
2019-03-06T03:29:21.484Z,75.11
2019-03-06T03:31:48.763Z,75.34
2019-03-06T03:34:16.005Z,75.17
2019-03-06T03:36:43.226Z,75.02
2019-03-06T03:39:10.495Z,74.86
2019-03-06T03:41:38.768Z,75.06
2019-03-06T03:44:06.015Z,74.97
2019-03-06T03:46:33.275Z,74.85
2019-03-06T03:49:00.536Z,74.82
2019-03-06T03:51:27.779Z,74.77
2019-03-06T03:53:55.166Z,74.73
2019-03-06T03:56:22.426Z,74.94
2019-03-06T03:58:49.664Z,74.94
2019-03-06T04:01:16.972Z,75.05
2019-03-06T04:03:44.310Z,75.22
2019-03-06T04:06:11.604Z,75.58
2019-03-06T04:08:38.895Z,75.82
2019-03-06T04:11:06.142Z,76.06
2019-03-06T04:13:33.364Z,76.33
2019-03-06T04:16:00.664Z,76.30
2019-03-06T04:18:27.910Z,76.30
2019-03-06T04:20:55.203Z,76.21
2019-03-06T04:23:22.451Z,75.98
2019-03-06T04:25:49.691Z,76.43
2019-03-06T04:28:16.986Z,76.41
2019-03-06T04:30:44.358Z,76.43
2019-03-06T04:33:11.603Z,77.00
2019-03-06T04:35:38.899Z,77.13
2019-03-06T04:38:06.142Z,77.42
2019-03-06T04:40:33.407Z,78.48
2019-03-06T04:43:00.683Z,78.07
2019-03-06T04:45:27.919Z,78.12
2019-03-06T04:47:55.168Z,77.82
2019-03-06T04:50:22.460Z,77.98
2019-03-06T04:52:49.694Z,77.78
2019-03-06T04:55:16.988Z,78.08
2019-03-06T04:57:44.230Z,78.82
2019-03-06T05:00:11.696Z,78.62
2019-03-06T05:02:38.972Z,78.21
2019-03-06T05:05:06.517Z,78.81
2019-03-06T05:07:33.772Z,78.66
2019-03-06T05:10:03.639Z,78.79
2019-03-06T05:12:30.862Z,78.87
2019-03-06T05:14:58.180Z,78.76
2019-03-06T05:17:43.733Z,79.07
2019-03-06T05:20:11.111Z,79.09
2019-03-06T05:22:38.381Z,79.16
2019-03-06T05:25:05.767Z,78.98
2019-03-06T05:27:33.029Z,79.16
2019-03-06T05:30:00.580Z,79.28
2019-03-06T05:32:32.192Z,79.15
2019-03-06T05:35:22.588Z,79.15
2019-03-06T05:38:05.499Z,79.43
2019-03-06T05:40:32.800Z,79.38
2019-03-06T05:43:00.049Z,79.47
2019-03-06T05:45:27.288Z,79.56
2019-03-06T05:47:54.562Z,79.32
2019-03-06T05:50:21.834Z,79.23
2019-03-06T05:52:49.089Z,79.55
2019-03-06T05:55:16.335Z,79.51
2019-03-06T05:57:43.612Z,79.28
2019-03-06T06:00:11.603Z,79.46
2019-03-06T06:02:39.083Z,79.34
2019-03-06T06:05:08.881Z,79.52
2019-03-06T06:07:36.151Z,79.43
2019-03-06T06:10:04.202Z,79.67
2019-03-06T06:12:31.433Z,79.62
2019-03-06T06:14:58.696Z,80.10
2019-03-06T06:17:25.948Z,79.63
2019-03-06T06:19:53.253Z,79.78
2019-03-06T06:22:30.752Z,79.86
2019-03-06T06:24:58.015Z,79.71
2019-03-06T06:27:25.251Z,79.47
2019-03-06T06:29:52.534Z,79.64
2019-03-06T06:32:19.783Z,79.46
2019-03-06T06:34:47.033Z,79.32
2019-03-06T06:37:14.294Z,79.54
2019-03-06T06:39:41.544Z,79.59
2019-03-06T06:42:09.123Z,79.80
2019-03-06T06:44:36.355Z,80.23
2019-03-06T06:47:03.614Z,80.01
2019-03-06T06:49:30.925Z,79.87
2019-03-06T06:52:13.988Z,79.78
2019-03-06T06:55:24.834Z,79.78
2019-03-06T06:58:49.258Z,79.48
2019-03-06T07:01:58.390Z,80.40
2019-03-06T07:05:47.811Z,80.18
2019-03-06T07:08:34.591Z,80.38
2019-03-06T07:11:34.907Z,80.53
2019-03-06T07:14:39.846Z,80.65
2019-03-06T07:17:34.083Z,80.29
2019-03-06T07:20:07.874Z,80.20
2019-03-06T07:22:55.728Z,80.53
2019-03-06T07:25:51.608Z,80.20
2019-03-06T07:28:38.403Z,80.39
2019-03-06T07:31:15.416Z,80.50
2019-03-06T07:33:58.593Z,80.57
2019-03-06T07:37:03.698Z,80.45
2019-03-06T07:39:36.466Z,80.40
2019-03-06T07:42:22.298Z,80.28
2019-03-06T07:45:49.063Z,79.70
2019-03-06T07:48:35.839Z,80.15
2019-03-06T07:51:10.490Z,80.53
2019-03-06T07:54:06.521Z,80.72
2019-03-06T07:56:37.339Z,80.03
2019-03-06T07:59:04.748Z,80.46
2019-03-06T08:01:34.764Z,79.93
2019-03-06T08:04:27.573Z,80.14
2019-03-06T08:07:02.014Z,80.46
2019-03-06T08:09:29.494Z,80.48
2019-03-06T08:12:09.612Z,81.33
2019-03-06T08:14:56.448Z,80.71
2019-03-06T08:17:52.485Z,80.80
2019-03-06T08:20:37.687Z,80.77
2019-03-06T08:23:17.473Z,80.51
2019-03-06T08:25:44.290Z,80.44
2019-03-06T08:28:12.377Z,80.44
2019-03-06T08:30:45.482Z,80.22
2019-03-06T08:33:18.154Z,79.75
2019-03-06T08:35:42.040Z,80.00
2019-03-06T08:38:09.392Z,79.77
2019-03-06T08:40:36.703Z,79.77
2019-03-06T08:43:03.944Z,79.75
2019-03-06T08:45:40.209Z,79.58
2019-03-06T08:48:14.897Z,79.73
2019-03-06T08:50:53.735Z,79.60
2019-03-06T08:53:31.993Z,79.38
2019-03-06T08:56:21.689Z,79.46
2019-03-06T08:59:10.114Z,79.27
2019-03-06T09:02:00.543Z,79.09
2019-03-06T09:04:58.540Z,79.09
2019-03-06T09:07:41.380Z,78.86
2019-03-06T09:10:17.360Z,78.90
2019-03-06T09:13:19.159Z,78.90
2019-03-06T09:16:06.292Z,78.66
2019-03-06T09:18:52.895Z,78.80
2019-03-06T09:21:45.451Z,78.00
2019-03-06T09:24:35.018Z,78.00
2019-03-06T09:27:12.848Z,77.97
2019-03-06T09:30:02.738Z,77.90
2019-03-06T09:32:37.293Z,77.54
2019-03-06T09:35:20.421Z,77.95
2019-03-06T09:38:11.196Z,77.95
2019-03-06T09:40:46.310Z,77.78
2019-03-06T09:43:48.305Z,77.84
2019-03-06T09:46:27.501Z,77.57
2019-03-06T09:49:12.535Z,77.57
2019-03-06T09:51:52.256Z,77.51
2019-03-06T09:54:35.323Z,77.80
2019-03-06T09:57:25.043Z,77.62
2019-03-06T10:00:10.351Z,77.17
2019-03-06T10:02:45.741Z,76.84
2019-03-06T10:05:28.046Z,76.61
2019-03-06T10:08:20.760Z,76.45
2019-03-06T10:10:57.782Z,75.96
2019-03-06T10:13:30.898Z,76.00
2019-03-06T10:16:20.706Z,76.00
2019-03-06T10:19:02.962Z,75.90
2019-03-06T10:21:30.264Z,75.76
2019-03-06T10:23:57.514Z,75.44
2019-03-06T10:26:25.086Z,75.03
2019-03-06T10:28:52.396Z,75.03
2019-03-06T10:31:19.790Z,75.03
2019-03-06T10:33:47.160Z,74.65
2019-03-06T10:36:14.428Z,75.19
2019-03-06T10:38:41.719Z,75.31
2019-03-06T10:41:10.491Z,75.08
2019-03-06T10:43:38.992Z,75.08
2019-03-06T10:46:06.485Z,74.72
2019-03-06T10:48:33.722Z,74.72
2019-03-06T10:51:01.013Z,74.70
2019-03-06T10:53:28.449Z,74.41
2019-03-06T10:55:55.716Z,74.32
2019-03-06T10:58:22.954Z,74.04
2019-03-06T11:00:54.203Z,73.84
2019-03-06T11:03:25.449Z,74.02
2019-03-06T11:05:52.899Z,73.53
2019-03-06T11:08:20.793Z,73.46
2019-03-06T11:10:48.171Z,73.02
2019-03-06T11:13:15.554Z,72.89
2019-03-06T11:15:42.907Z,72.81
2019-03-06T11:18:10.696Z,72.55
2019-03-06T11:20:40.612Z,72.47
2019-03-06T11:23:08.193Z,72.33
2019-03-06T11:25:36.553Z,72.81
2019-03-06T11:28:05.921Z,72.82
2019-03-06T11:30:37.026Z,72.82
2019-03-06T11:33:05.934Z,72.97
2019-03-06T11:35:34.194Z,73.20
2019-03-06T11:38:01.512Z,73.28
2019-03-06T11:40:29.326Z,73.21
2019-03-06T11:42:56.595Z,73.31
2019-03-06T11:45:23.903Z,73.59
2019-03-06T11:47:51.295Z,73.59
2019-03-06T11:50:19.346Z,73.63
2019-03-06T11:52:46.839Z,73.30
2019-03-06T11:55:15.206Z,72.95
2019-03-06T11:57:43.627Z,73.03
2019-03-06T12:00:23.907Z,72.85
2019-03-06T12:02:52.356Z,72.64
2019-03-06T12:05:21.543Z,72.54
2019-03-06T12:07:49.098Z,72.63
2019-03-06T12:10:17.957Z,72.13
2019-03-06T12:12:45.747Z,72.01
2019-03-06T12:15:14.533Z,71.13
2019-03-06T12:17:42.005Z,71.13
2019-03-06T12:20:09.485Z,70.73
2019-03-06T12:22:36.732Z,70.07
2019-03-06T12:25:06.201Z,69.95
2019-03-06T12:27:34.039Z,69.38
2019-03-06T12:30:01.357Z,69.42
2019-03-06T12:32:28.684Z,69.25
2019-03-06T12:34:55.936Z,69.11
2019-03-06T12:37:23.335Z,69.22
2019-03-06T12:39:50.619Z,68.93
2019-03-06T12:42:17.864Z,69.30
2019-03-06T12:44:45.141Z,69.50
2019-03-06T12:47:12.696Z,69.55
2019-03-06T12:49:40.034Z,69.47
2019-03-06T12:52:07.303Z,69.44
2019-03-06T12:54:34.679Z,69.38
2019-03-06T12:57:02.071Z,69.69
2019-03-06T12:59:31.175Z,69.71
2019-03-06T13:01:58.733Z,69.48
2019-03-06T13:04:26.038Z,69.09
2019-03-06T13:06:53.271Z,68.83
2019-03-06T13:09:22.591Z,68.83
2019-03-06T13:11:49.943Z,69.08
2019-03-06T13:14:18.670Z,69.23
2019-03-06T13:16:46.047Z,69.17
2019-03-06T13:19:13.368Z,69.15
2019-03-06T13:21:40.608Z,69.24
2019-03-06T13:24:08.044Z,70.03
2019-03-06T13:26:35.351Z,70.03
2019-03-06T13:29:02.905Z,69.90
2019-03-06T13:31:30.305Z,69.56
2019-03-06T13:34:11.211Z,69.65
2019-03-06T13:36:38.539Z,69.46
2019-03-06T13:39:07.277Z,69.89
2019-03-06T13:41:34.579Z,69.63
2019-03-06T13:44:01.851Z,69.63
2019-03-06T13:46:29.295Z,69.76
2019-03-06T13:48:56.585Z,69.85
2019-03-06T13:51:23.812Z,69.84
2019-03-06T13:53:51.069Z,70.37
2019-03-06T13:56:18.353Z,70.33
2019-03-06T13:58:45.643Z,70.73
2019-03-06T14:01:13.589Z,71.38
2019-03-06T14:03:41.171Z,71.74
2019-03-06T14:06:08.563Z,71.66
2019-03-06T14:08:35.841Z,72.00
2019-03-06T14:11:03.584Z,72.18
2019-03-06T14:13:32.936Z,72.69
2019-03-06T14:16:06.779Z,73.18
2019-03-06T14:18:34.659Z,73.59
2019-03-06T14:21:02.188Z,73.92
2019-03-06T14:23:35.042Z,73.92
2019-03-06T14:25:59.372Z,73.91
2019-03-06T14:28:29.788Z,73.49
2019-03-06T14:30:57.237Z,73.75
2019-03-06T14:33:24.706Z,73.71
2019-03-06T14:35:52.463Z,74.00
2019-03-06T14:38:22.158Z,74.03
2019-03-06T14:40:52.579Z,74.25
2019-03-06T14:43:20.834Z,74.25
2019-03-06T14:45:49.851Z,74.16
2019-03-06T14:48:17.636Z,74.68
2019-03-06T14:50:45.107Z,74.42
2019-03-06T14:53:12.531Z,74.60
2019-03-06T14:55:40.665Z,75.02
2019-03-06T14:58:08.193Z,75.02
2019-03-06T15:00:35.448Z,75.08
2019-03-06T15:03:02.832Z,74.85
2019-03-06T15:05:30.070Z,75.21
2019-03-06T15:07:57.546Z,75.07
2019-03-06T15:10:24.881Z,75.17
2019-03-06T15:12:54.119Z,75.17
2019-03-06T15:15:22.744Z,75.22
2019-03-06T15:17:50.011Z,75.31
2019-03-06T15:20:17.930Z,75.49
2019-03-06T15:22:45.780Z,75.67
2019-03-06T15:25:17.952Z,75.82
2019-03-06T15:27:45.582Z,75.95
2019-03-06T15:30:14.392Z,75.93
2019-03-06T15:32:42.232Z,75.99
2019-03-06T15:35:10.588Z,76.02
2019-03-06T15:37:38.428Z,75.97
2019-03-06T15:40:09.259Z,75.55
2019-03-06T15:42:36.583Z,75.96
2019-03-06T15:45:04.725Z,75.78
2019-03-06T15:47:33.915Z,76.29
2019-03-06T15:50:01.410Z,76.29
2019-03-06T15:52:29.159Z,76.08
2019-03-06T15:54:59.223Z,76.02
2019-03-06T15:57:26.516Z,75.65
2019-03-06T15:59:53.767Z,75.65
2019-03-06T16:02:21.173Z,75.57
2019-03-06T16:04:48.432Z,75.33
2019-03-06T16:07:17.466Z,75.33
2019-03-06T16:09:44.923Z,75.36
2019-03-06T16:12:12.485Z,75.87
2019-03-06T16:14:39.943Z,75.87
2019-03-06T16:17:07.345Z,75.96
2019-03-06T16:19:34.582Z,75.96
2019-03-06T16:22:03.314Z,76.08
2019-03-06T16:24:30.870Z,76.08
2019-03-06T16:26:58.219Z,75.40
2019-03-06T16:29:25.561Z,75.50
2019-03-06T16:31:52.877Z,75.20
2019-03-06T16:34:20.160Z,75.14
2019-03-06T16:36:47.479Z,74.95
2019-03-06T16:39:14.831Z,74.97
2019-03-06T16:41:42.083Z,74.81
2019-03-06T16:44:09.498Z,74.81
2019-03-06T16:46:36.806Z,74.67
2019-03-06T16:49:04.146Z,74.76
2019-03-06T16:51:31.393Z,74.72
2019-03-06T16:53:58.804Z,74.55
2019-03-06T16:56:26.344Z,73.96
2019-03-06T16:58:55.677Z,74.08
2019-03-06T17:01:24.255Z,73.84
2019-03-06T17:03:51.527Z,73.66
2019-03-06T17:06:22.342Z,73.10
2019-03-06T17:08:49.665Z,73.10
2019-03-06T17:11:17.120Z,73.05
2019-03-06T17:13:44.502Z,72.93
2019-03-06T17:16:11.856Z,72.70
2019-03-06T17:18:39.101Z,72.57
2019-03-06T17:21:06.594Z,72.60
2019-03-06T17:23:33.973Z,72.50
2019-03-06T17:26:01.236Z,72.36
2019-03-06T17:28:28.889Z,72.19
2019-03-06T17:30:56.587Z,72.14
2019-03-06T17:33:23.878Z,73.25
2019-03-06T17:35:52.252Z,73.25
2019-03-06T17:38:20.583Z,72.55
2019-03-06T17:40:47.932Z,72.23
2019-03-06T17:43:15.416Z,72.05
2019-03-06T17:45:44.791Z,71.91
2019-03-06T17:48:12.179Z,72.00
2019-03-06T17:50:39.544Z,72.00
2019-03-06T17:53:06.922Z,71.97
2019-03-06T17:55:34.387Z,72.01
2019-03-06T17:58:01.743Z,71.96
2019-03-06T18:00:37.628Z,72.11
2019-03-06T18:03:05.026Z,72.11
2019-03-06T18:05:32.419Z,71.77
2019-03-06T18:07:59.708Z,71.87
2019-03-06T18:10:26.986Z,72.16
2019-03-06T18:12:54.336Z,72.16
2019-03-06T18:15:21.711Z,72.09
2019-03-06T18:17:48.965Z,72.75
2019-03-06T18:20:16.518Z,72.95
2019-03-06T18:22:44.097Z,73.11
2019-03-06T18:25:13.383Z,72.85
2019-03-06T18:27:40.622Z,72.79
2019-03-06T18:30:09.900Z,72.59
2019-03-06T18:32:37.215Z,72.87
2019-03-06T18:35:04.714Z,72.73
2019-03-06T18:37:31.987Z,72.74
2019-03-06T18:39:59.584Z,72.64
2019-03-06T18:42:26.837Z,72.74
2019-03-06T18:44:54.117Z,73.04
2019-03-06T18:47:21.525Z,73.34
2019-03-06T18:49:48.873Z,73.41
2019-03-06T18:52:16.112Z,73.38
2019-03-06T18:54:43.480Z,73.46
2019-03-06T18:57:13.392Z,73.88
2019-03-06T18:59:40.802Z,74.00
2019-03-06T19:02:08.066Z,74.01
2019-03-06T19:04:35.333Z,74.28
2019-03-06T19:07:02.612Z,74.28
2019-03-06T19:09:29.910Z,74.73
2019-03-06T19:11:57.182Z,75.00
2019-03-06T19:14:24.418Z,75.15
2019-03-06T19:16:51.708Z,75.81
2019-03-06T19:19:18.999Z,75.81
2019-03-06T19:21:46.362Z,76.34
2019-03-06T19:24:13.620Z,76.34
2019-03-06T19:26:40.982Z,76.56
2019-03-06T19:29:08.374Z,76.79
2019-03-06T19:31:35.635Z,77.27
2019-03-06T19:34:03.021Z,77.10
2019-03-06T19:36:30.306Z,77.58
2019-03-06T19:38:57.547Z,77.87
2019-03-06T19:41:24.882Z,78.59
2019-03-06T19:43:52.716Z,78.69
2019-03-06T19:46:19.991Z,78.69
2019-03-06T19:48:47.279Z,78.96
2019-03-06T19:51:14.570Z,78.96
2019-03-06T19:53:41.829Z,79.00
2019-03-06T19:56:09.121Z,79.00
2019-03-06T19:58:36.362Z,79.18
2019-03-06T20:01:05.722Z,79.55
2019-03-06T20:03:32.968Z,79.55
2019-03-06T20:06:00.344Z,79.49
2019-03-06T20:08:27.624Z,79.47
2019-03-06T20:10:57.048Z,80.16
2019-03-06T20:13:24.373Z,79.80
2019-03-06T20:15:51.635Z,80.43
2019-03-06T20:18:19.195Z,80.20
2019-03-06T20:20:46.555Z,80.57
2019-03-06T20:23:13.829Z,81.00
2019-03-06T20:25:41.184Z,81.00
2019-03-06T20:28:08.453Z,80.77
2019-03-06T20:30:35.903Z,80.97
2019-03-06T20:33:03.530Z,80.86
2019-03-06T20:35:30.909Z,80.86
2019-03-06T20:37:58.566Z,81.11
2019-03-06T20:40:25.816Z,80.34
2019-03-06T20:42:53.095Z,80.13
2019-03-06T20:45:20.542Z,80.13
2019-03-06T20:47:47.896Z,80.39
2019-03-06T20:50:15.395Z,80.15
2019-03-06T20:52:42.931Z,80.44
2019-03-06T20:55:10.729Z,80.27
2019-03-06T20:57:38.382Z,79.99
2019-03-06T21:00:06.762Z,80.60
2019-03-06T21:02:33.990Z,80.71
2019-03-06T21:05:02.088Z,80.23
2019-03-06T21:07:29.371Z,80.23
2019-03-06T21:09:56.690Z,79.93
2019-03-06T21:12:23.919Z,79.93
2019-03-06T21:14:51.159Z,80.28
2019-03-06T21:17:18.411Z,80.35
2019-03-06T21:19:45.966Z,80.55
2019-03-06T21:22:13.258Z,80.62
2019-03-06T21:24:40.513Z,80.31
2019-03-06T21:27:07.775Z,80.14
2019-03-06T21:29:35.123Z,80.14
2019-03-06T21:32:02.362Z,80.16
2019-03-06T21:34:29.660Z,80.44
2019-03-06T21:36:56.911Z,80.21
2019-03-06T21:39:24.819Z,80.53
2019-03-06T21:41:52.212Z,80.68
2019-03-06T21:44:19.501Z,79.78
2019-03-06T21:46:46.754Z,79.99
2019-03-06T21:49:14.091Z,79.99
2019-03-06T21:51:41.324Z,80.10
2019-03-06T21:54:08.849Z,80.06
2019-03-06T21:56:36.385Z,80.21
2019-03-06T21:59:03.802Z,80.21
2019-03-06T22:01:31.118Z,80.45
2019-03-06T22:03:58.387Z,80.26
2019-03-06T22:06:25.851Z,80.45
2019-03-06T22:08:53.130Z,80.60
2019-03-06T22:11:20.363Z,80.58
2019-03-06T22:13:47.866Z,80.85
2019-03-06T22:16:15.164Z,80.20
2019-03-06T22:18:42.437Z,80.20
2019-03-06T22:21:09.699Z,80.35
2019-03-06T22:23:36.980Z,80.09
2019-03-06T22:26:04.283Z,79.58
2019-03-06T22:28:31.614Z,79.58
2019-03-06T22:30:59.221Z,80.15
2019-03-06T22:33:26.473Z,79.98
2019-03-06T22:35:53.758Z,79.84
2019-03-06T22:38:21.019Z,79.84
2019-03-06T22:40:48.321Z,79.37
2019-03-06T22:43:15.621Z,79.37
2019-03-06T22:45:42.890Z,79.24
2019-03-06T22:48:12.232Z,78.71
2019-03-06T22:50:39.587Z,79.11
2019-03-06T22:53:06.831Z,79.04
2019-03-06T22:55:34.132Z,79.13
2019-03-06T22:58:02.719Z,78.89
2019-03-06T23:00:57.454Z,78.84
2019-03-06T23:03:26.727Z,79.14
2019-03-06T23:05:54.242Z,79.17
2019-03-06T23:08:21.583Z,79.53
2019-03-06T23:10:48.868Z,79.55
2019-03-06T23:13:18.715Z,79.21
2019-03-06T23:15:46.024Z,79.23
2019-03-06T23:18:13.291Z,79.23
2019-03-06T23:20:40.548Z,79.22
2019-03-06T23:23:07.783Z,79.00
2019-03-06T23:25:36.025Z,78.85
2019-03-06T23:28:03.384Z,78.68
2019-03-06T23:30:30.805Z,78.87
2019-03-06T23:32:58.084Z,78.74
2019-03-06T23:35:25.356Z,78.32
2019-03-06T23:37:52.589Z,78.07
2019-03-06T23:40:19.882Z,77.81
2019-03-06T23:42:48.102Z,78.31
2019-03-06T23:45:15.557Z,78.31
2019-03-06T23:47:42.843Z,78.11
2019-03-06T23:50:10.329Z,78.11
2019-03-06T23:52:57.201Z,78.05
2019-03-06T23:55:25.238Z,78.56
2019-03-06T23:57:52.682Z,77.90
